createdAt,value
2018-06-13T00:01:06.548Z,8.60
2018-06-13T00:03:34.042Z,8.70
2018-06-13T00:06:01.542Z,7.43
2018-06-13T00:08:29.273Z,6.40
2018-06-13T00:10:56.765Z,7.70
2018-06-13T00:13:24.279Z,6.93
2018-06-13T00:15:51.781Z,7.10
2018-06-13T00:18:19.301Z,7.37
2018-06-13T00:20:46.792Z,6.37
2018-06-13T00:23:14.325Z,7.20
2018-06-13T00:25:41.817Z,6.50
2018-06-13T00:28:09.353Z,7.27
2018-06-13T00:30:36.867Z,7.10
2018-06-13T00:35:38.482Z,6.90
2018-06-13T00:38:06.047Z,6.00
2018-06-13T00:40:33.621Z,6.17
2018-06-13T00:43:01.225Z,6.97
2018-06-13T00:45:28.723Z,6.70
2018-06-13T00:47:56.253Z,6.00
2018-06-13T00:50:23.766Z,5.70
2018-06-13T00:52:51.301Z,6.73
2018-06-13T00:55:18.974Z,5.70
2018-06-13T00:57:46.541Z,5.30
2018-06-13T01:00:14.065Z,6.00
2018-06-13T01:02:41.624Z,6.50
2018-06-13T01:05:09.131Z,5.07
2018-06-13T01:07:36.680Z,4.20
2018-06-13T01:10:04.305Z,4.57
2018-06-13T01:12:31.821Z,4.00
2018-06-13T01:14:59.338Z,4.57
2018-06-13T01:17:26.849Z,4.67
2018-06-13T01:19:54.396Z,4.37
2018-06-13T01:22:21.889Z,3.93
2018-06-13T01:24:49.413Z,3.27
2018-06-13T01:27:16.934Z,3.80
2018-06-13T01:29:44.455Z,4.10
2018-06-13T01:32:12.002Z,3.70
2018-06-13T01:34:39.784Z,3.87
2018-06-13T01:37:07.286Z,4.00
2018-06-13T01:39:34.858Z,3.73
2018-06-13T01:42:02.398Z,3.97
2018-06-13T01:44:29.932Z,3.77
2018-06-13T01:46:57.451Z,5.10
2018-06-13T01:49:25.043Z,4.60
2018-06-13T01:51:52.538Z,4.23
2018-06-13T01:54:20.105Z,4.10
2018-06-13T01:56:47.627Z,3.50
2018-06-13T01:59:15.213Z,4.87
2018-06-13T02:04:17.060Z,3.83
2018-06-13T02:06:44.574Z,4.60
2018-06-13T02:09:12.080Z,4.30
2018-06-13T02:11:39.580Z,3.83
2018-06-13T02:14:07.065Z,4.53
2018-06-13T02:16:34.597Z,3.47
2018-06-13T02:19:02.149Z,3.80
2018-06-13T02:21:29.669Z,3.67
2018-06-13T02:23:57.177Z,4.47
2018-06-13T02:26:24.684Z,4.23
2018-06-13T02:28:52.280Z,4.37
2018-06-13T02:31:19.801Z,3.90
2018-06-13T02:33:47.289Z,5.23
2018-06-13T02:36:14.718Z,3.77
2018-06-13T02:38:42.226Z,4.10
2018-06-13T02:41:09.761Z,3.33
2018-06-13T02:43:37.270Z,4.47
2018-06-13T02:46:04.825Z,3.63
2018-06-13T02:48:32.319Z,4.00
2018-06-13T02:50:59.808Z,3.90
2018-06-13T02:53:27.413Z,4.07
2018-06-13T02:55:54.925Z,3.93
2018-06-13T02:58:22.416Z,4.00
2018-06-13T03:00:49.951Z,3.63
2018-06-13T03:03:17.474Z,3.40
2018-06-13T03:05:45.018Z,4.00
2018-06-13T03:08:12.559Z,4.03
2018-06-13T03:10:40.086Z,4.30
2018-06-13T03:13:07.565Z,4.90
2018-06-13T03:15:41.906Z,4.00
2018-06-13T03:18:09.521Z,4.67
2018-06-13T03:20:37.005Z,4.00
2018-06-13T03:23:04.577Z,5.33
2018-06-13T03:25:32.094Z,3.80
2018-06-13T03:27:59.594Z,4.43
2018-06-13T03:30:27.115Z,4.33
2018-06-13T03:32:54.648Z,4.70
2018-06-13T03:35:22.153Z,4.23
2018-06-13T03:37:49.694Z,3.87
2018-06-13T03:40:17.215Z,4.27
2018-06-13T03:42:45.293Z,4.60
2018-06-13T03:45:12.772Z,4.47
2018-06-13T03:47:40.313Z,5.00
2018-06-13T03:50:08.503Z,4.10
2018-06-13T03:52:36.021Z,4.80
2018-06-13T03:55:03.605Z,5.03
2018-06-13T03:57:31.122Z,5.53
2018-06-13T03:59:58.637Z,4.33
2018-06-13T04:02:26.161Z,5.13
2018-06-13T04:04:53.701Z,4.70
2018-06-13T04:07:21.235Z,4.87
2018-06-13T04:09:48.740Z,4.93
2018-06-13T04:12:16.249Z,4.73
2018-06-13T04:14:43.772Z,5.67
2018-06-13T04:17:11.303Z,4.80
2018-06-13T04:19:39.741Z,4.47
2018-06-13T04:22:07.430Z,5.70
2018-06-13T04:24:34.945Z,5.20
2018-06-13T04:27:02.570Z,6.07
2018-06-13T04:29:30.016Z,6.47
2018-06-13T04:31:57.537Z,5.80
2018-06-13T04:36:59.209Z,5.10
2018-06-13T04:39:26.747Z,6.17
2018-06-13T04:41:54.328Z,4.80
2018-06-13T04:44:21.857Z,5.87
2018-06-13T04:46:49.369Z,5.60
2018-06-13T04:49:16.925Z,6.10
2018-06-13T04:51:44.446Z,6.10
2018-06-13T04:54:11.984Z,5.87
2018-06-13T04:56:39.498Z,5.70
2018-06-13T04:59:07.016Z,5.73
2018-06-13T05:01:34.521Z,5.03
2018-06-13T05:04:02.053Z,6.27
2018-06-13T05:06:29.564Z,4.93
2018-06-13T05:08:57.076Z,5.30
2018-06-13T05:11:24.608Z,5.80
2018-06-13T05:13:52.124Z,5.97
2018-06-13T05:16:19.654Z,5.70
2018-06-13T05:18:47.173Z,5.20
2018-06-13T05:21:14.678Z,5.83
2018-06-13T05:23:42.209Z,5.73
2018-06-13T05:26:09.721Z,6.37
2018-06-13T05:28:37.260Z,5.70
2018-06-13T05:31:04.778Z,5.60
2018-06-13T05:33:32.286Z,6.93
2018-06-13T05:35:59.812Z,6.37
2018-06-13T05:38:27.365Z,5.80
2018-06-13T05:40:54.891Z,5.30
2018-06-13T05:43:22.394Z,5.50
2018-06-13T05:45:49.939Z,5.73
2018-06-13T05:48:17.452Z,7.03
2018-06-13T05:50:44.991Z,5.70
2018-06-13T05:53:12.514Z,5.87
2018-06-13T05:55:40.046Z,6.07
2018-06-13T05:58:07.569Z,8.20
2018-06-13T06:00:35.129Z,6.03
2018-06-13T06:03:02.681Z,6.53
2018-06-13T06:05:30.210Z,5.13
2018-06-13T06:07:57.710Z,6.23
2018-06-13T06:10:25.243Z,5.17
2018-06-13T06:12:52.750Z,5.97
2018-06-13T06:15:20.241Z,5.60
2018-06-13T06:17:47.804Z,5.40
2018-06-13T06:20:15.295Z,5.53
2018-06-13T06:22:42.825Z,5.50
2018-06-13T06:25:10.366Z,5.33
2018-06-13T06:27:37.895Z,5.40
2018-06-13T06:30:05.469Z,4.10
2018-06-13T06:32:33.003Z,5.57
2018-06-13T06:35:00.752Z,3.93
2018-06-13T06:37:28.285Z,3.90
2018-06-13T06:39:55.809Z,4.50
2018-06-13T06:42:23.358Z,5.43
2018-06-13T06:44:50.896Z,3.93
2018-06-13T06:47:18.423Z,3.80
2018-06-13T06:49:45.989Z,4.40
2018-06-13T06:52:13.465Z,3.90
2018-06-13T06:54:40.969Z,5.30
2018-06-13T06:57:08.521Z,3.20
2018-06-13T06:59:36.057Z,4.80
2018-06-13T07:02:03.597Z,3.60
2018-06-13T07:04:31.112Z,4.23
2018-06-13T07:06:58.609Z,3.50
2018-06-13T07:09:26.190Z,4.50
2018-06-13T07:11:53.714Z,4.20
2018-06-13T07:14:21.243Z,3.43
2018-06-13T07:16:48.762Z,3.80
2018-06-13T07:19:16.285Z,3.43
2018-06-13T07:21:43.797Z,3.37
2018-06-13T07:24:11.335Z,4.10
2018-06-13T07:26:38.907Z,3.70
2018-06-13T07:29:06.426Z,3.93
2018-06-13T07:31:33.921Z,5.53
2018-06-13T07:34:01.487Z,3.60
2018-06-13T07:36:29.004Z,3.63
2018-06-13T07:38:56.445Z,4.53
2018-06-13T07:41:24.002Z,3.53
2018-06-13T07:43:51.514Z,3.23
2018-06-13T07:46:19.072Z,2.80
2018-06-13T07:48:47.235Z,2.63
2018-06-13T07:51:14.767Z,2.70
2018-06-13T07:53:42.277Z,3.33
2018-06-13T07:56:09.886Z,3.00
2018-06-13T07:58:37.306Z,1.97
2018-06-13T08:01:04.849Z,2.70
2018-06-13T08:03:32.356Z,2.60
2018-06-13T08:05:59.897Z,2.20
2018-06-13T08:08:27.420Z,1.90
2018-06-13T08:10:54.981Z,1.87
2018-06-13T08:13:22.576Z,1.80
2018-06-13T08:15:50.174Z,1.70
2018-06-13T08:18:17.697Z,3.87
2018-06-13T08:20:45.223Z,1.80
2018-06-13T08:23:12.756Z,1.77
2018-06-13T08:25:40.273Z,1.70
2018-06-13T08:28:14.406Z,1.50
2018-06-13T08:30:41.963Z,1.83
2018-06-13T08:33:09.517Z,2.03
2018-06-13T08:35:37.065Z,2.30
2018-06-13T08:38:04.673Z,2.10
2018-06-13T08:40:32.230Z,1.40
2018-06-13T08:42:59.801Z,1.63
2018-06-13T08:45:27.342Z,1.90
2018-06-13T08:47:54.857Z,1.83
2018-06-13T08:50:22.357Z,1.97
2018-06-13T08:52:49.880Z,1.80
2018-06-13T08:55:17.398Z,2.17
2018-06-13T08:57:44.933Z,2.30
2018-06-13T09:00:12.453Z,1.80
2018-06-13T09:02:39.990Z,2.53
2018-06-13T09:05:07.517Z,2.43
2018-06-13T09:07:35.034Z,1.70
2018-06-13T09:10:02.577Z,2.00
2018-06-13T09:12:30.131Z,2.37
2018-06-13T09:14:57.677Z,1.73
2018-06-13T09:17:25.173Z,2.90
2018-06-13T09:19:52.689Z,2.30
2018-06-13T09:22:20.236Z,1.90
2018-06-13T09:24:47.737Z,1.83
2018-06-13T09:27:15.279Z,1.30
2018-06-13T09:29:42.805Z,2.33
2018-06-13T09:32:10.329Z,2.63
2018-06-13T09:34:37.818Z,1.73
2018-06-13T09:37:05.386Z,2.10
2018-06-13T09:39:32.886Z,1.67
2018-06-13T09:42:00.415Z,2.60
2018-06-13T09:44:28.545Z,2.23
2018-06-13T09:46:56.052Z,1.80
2018-06-13T09:49:23.630Z,2.50
2018-06-13T09:51:51.146Z,1.93
2018-06-13T09:54:18.679Z,1.50
2018-06-13T09:56:46.340Z,2.13
2018-06-13T09:59:17.499Z,2.00
2018-06-13T10:01:48.166Z,2.80
2018-06-13T10:04:15.680Z,2.23
2018-06-13T10:06:43.201Z,2.33
2018-06-13T10:09:10.648Z,2.57
2018-06-13T10:11:38.213Z,1.63
2018-06-13T10:14:05.841Z,2.80
2018-06-13T10:16:33.374Z,2.30
2018-06-13T10:19:00.905Z,2.30
2018-06-13T10:21:28.692Z,2.40
2018-06-13T10:23:56.379Z,1.53
2018-06-13T10:26:24.374Z,2.43
2018-06-13T10:28:51.988Z,3.10
2018-06-13T10:31:19.483Z,1.97
2018-06-13T10:33:47.046Z,2.77
2018-06-13T10:36:14.601Z,1.90
2018-06-13T10:38:42.184Z,2.60
2018-06-13T10:41:09.752Z,1.83
2018-06-13T10:43:37.301Z,2.33
2018-06-13T10:46:04.864Z,2.70
2018-06-13T10:48:32.426Z,2.60
2018-06-13T10:51:00.114Z,3.00
2018-06-13T10:53:28.052Z,1.77
2018-06-13T10:55:55.661Z,2.40
2018-06-13T10:58:23.217Z,1.50
2018-06-13T11:00:50.768Z,1.90
2018-06-13T11:03:18.293Z,2.47
2018-06-13T11:05:45.817Z,2.07
2018-06-13T11:08:13.354Z,1.57
2018-06-13T11:10:40.912Z,2.30
2018-06-13T11:13:08.437Z,2.13
2018-06-13T11:15:35.955Z,2.07
2018-06-13T11:18:03.534Z,2.13
2018-06-13T11:20:31.189Z,1.63
2018-06-13T11:22:58.710Z,1.40
2018-06-13T11:25:26.241Z,2.20
2018-06-13T11:27:53.765Z,1.13
2018-06-13T11:30:21.261Z,2.30
2018-06-13T11:32:48.817Z,1.60
2018-06-13T11:35:16.396Z,2.03
2018-06-13T11:37:43.977Z,1.47
2018-06-13T11:40:11.491Z,2.17
2018-06-13T11:42:39.030Z,2.40
2018-06-13T11:45:06.634Z,2.50
2018-06-13T11:47:34.194Z,3.67
2018-06-13T11:50:01.702Z,2.10
2018-06-13T11:52:29.264Z,2.13
2018-06-13T11:54:56.771Z,2.40
2018-06-13T11:57:24.313Z,1.67
2018-06-13T11:59:51.891Z,2.50
2018-06-13T12:02:19.414Z,2.87
2018-06-13T12:04:46.914Z,2.70
2018-06-13T12:07:14.457Z,2.60
2018-06-13T12:09:41.981Z,2.20
2018-06-13T12:12:10.324Z,2.17
2018-06-13T12:14:37.858Z,2.30
2018-06-13T12:17:05.454Z,2.93
2018-06-13T12:19:32.999Z,2.30
2018-06-13T12:22:00.517Z,2.00
2018-06-13T12:24:28.204Z,2.30
2018-06-13T12:26:55.794Z,2.70
2018-06-13T12:29:23.361Z,2.00
2018-06-13T12:31:51.561Z,2.83
2018-06-13T12:34:19.415Z,3.20
2018-06-13T12:36:46.900Z,3.37
2018-06-13T12:39:14.441Z,2.87
2018-06-13T12:41:41.965Z,2.37
2018-06-13T12:44:09.505Z,3.17
2018-06-13T12:46:37.121Z,3.30
2018-06-13T12:49:04.831Z,3.07
2018-06-13T12:51:32.349Z,3.40
2018-06-13T12:54:00.419Z,1.67
2018-06-13T12:56:27.967Z,1.50
2018-06-13T12:58:55.654Z,1.70
2018-06-13T13:01:23.154Z,1.87
2018-06-13T13:03:50.685Z,2.80
2018-06-13T13:06:18.397Z,2.77
2018-06-13T13:08:45.913Z,1.80
2018-06-13T13:11:13.511Z,2.33
2018-06-13T13:13:40.984Z,2.13
2018-06-13T13:16:08.521Z,3.20
2018-06-13T13:18:36.070Z,1.70
2018-06-13T13:21:03.662Z,2.10
2018-06-13T13:23:31.169Z,1.70
2018-06-13T13:26:05.308Z,2.23
2018-06-13T13:28:32.758Z,2.63
2018-06-13T13:31:00.468Z,2.60
2018-06-13T13:33:27.978Z,2.10
2018-06-13T13:35:55.619Z,2.40
2018-06-13T13:38:23.100Z,2.73
2018-06-13T13:40:50.650Z,1.77
2018-06-13T13:43:18.178Z,1.80
2018-06-13T13:45:45.796Z,2.33
2018-06-13T13:48:13.558Z,3.10
2018-06-13T13:50:41.116Z,1.90
2018-06-13T13:53:08.709Z,1.90
2018-06-13T13:55:36.236Z,2.40
2018-06-13T13:58:03.965Z,2.60
2018-06-13T14:00:31.479Z,2.80
2018-06-13T14:02:58.989Z,2.63
2018-06-13T14:05:26.553Z,1.67
2018-06-13T14:07:54.119Z,2.70
2018-06-13T14:10:21.662Z,2.07
2018-06-13T14:12:49.270Z,2.23
2018-06-13T14:15:16.790Z,2.37
2018-06-13T14:17:44.315Z,2.00
2018-06-13T14:20:11.865Z,2.50
2018-06-13T14:22:39.477Z,2.43
2018-06-13T14:25:06.969Z,1.87
2018-06-13T14:27:34.517Z,1.87
2018-06-13T14:30:02.135Z,2.33
2018-06-13T14:32:29.657Z,2.50
2018-06-13T14:34:57.249Z,3.10
2018-06-13T14:37:24.868Z,3.13
2018-06-13T14:39:52.373Z,2.23
2018-06-13T14:42:19.947Z,3.07
2018-06-13T14:44:47.530Z,2.27
2018-06-13T14:47:15.066Z,2.60
2018-06-13T14:49:42.581Z,2.87
2018-06-13T14:52:10.146Z,2.60
2018-06-13T14:54:37.653Z,2.37
2018-06-13T14:57:05.356Z,2.40
2018-06-13T14:59:32.892Z,2.80
2018-06-13T15:02:00.493Z,2.73
2018-06-13T15:04:31.979Z,3.27
2018-06-13T15:06:59.550Z,3.70
2018-06-13T15:09:27.074Z,3.47
2018-06-13T15:11:54.557Z,3.03
2018-06-13T15:14:22.068Z,2.80
2018-06-13T15:16:49.601Z,3.47
2018-06-13T15:19:17.377Z,3.53
2018-06-13T15:21:44.901Z,3.10
2018-06-13T15:24:12.531Z,2.90
2018-06-13T15:26:40.097Z,3.20
2018-06-13T15:29:07.648Z,2.80
2018-06-13T15:31:35.127Z,4.03
2018-06-13T15:34:02.691Z,3.23
2018-06-13T15:36:30.272Z,3.20
2018-06-13T15:38:57.811Z,2.53
2018-06-13T15:41:25.403Z,2.77
2018-06-13T15:43:52.976Z,3.13
2018-06-13T15:46:21.077Z,9.73
2018-06-13T15:48:48.632Z,3.03
2018-06-13T15:51:16.189Z,2.53
2018-06-13T15:53:50.390Z,2.27
2018-06-13T15:56:17.911Z,1.97
2018-06-13T15:58:45.494Z,2.43
2018-06-13T16:01:13.087Z,2.00
2018-06-13T16:03:40.698Z,1.87
2018-06-13T16:06:08.442Z,2.57
2018-06-13T16:08:36.194Z,2.30
2018-06-13T16:11:03.732Z,2.90
2018-06-13T16:13:31.241Z,3.47
2018-06-13T16:15:58.790Z,3.40
2018-06-13T16:18:26.374Z,3.47
2018-06-13T16:20:53.928Z,3.10
2018-06-13T16:23:21.459Z,2.80
2018-06-13T16:25:48.985Z,2.67
2018-06-13T16:28:16.545Z,3.37
2018-06-13T16:30:44.057Z,2.60
2018-06-13T16:33:11.621Z,2.67
2018-06-13T16:35:39.189Z,2.30
2018-06-13T16:38:06.816Z,2.87
2018-06-13T16:40:34.377Z,2.93
2018-06-13T16:43:01.904Z,3.17
2018-06-13T16:45:29.697Z,2.70
2018-06-13T16:47:57.476Z,2.17
2018-06-13T16:50:36.298Z,2.47
2018-06-13T16:53:08.970Z,2.50
2018-06-13T16:55:36.561Z,2.77
2018-06-13T16:58:04.221Z,3.43
2018-06-13T17:00:31.764Z,2.90
2018-06-13T17:02:59.322Z,3.40
2018-06-13T17:05:26.933Z,2.90
2018-06-13T17:07:54.453Z,2.97
2018-06-13T17:10:21.955Z,3.40
2018-06-13T17:12:49.514Z,1.97
2018-06-13T17:15:17.037Z,2.27
2018-06-13T17:17:51.242Z,2.47
2018-06-13T17:20:18.749Z,2.70
2018-06-13T17:22:46.536Z,2.10
2018-06-13T17:25:14.046Z,2.80
2018-06-13T17:27:41.637Z,2.60
2018-06-13T17:30:09.393Z,2.40
2018-06-13T17:32:37.002Z,3.07
2018-06-13T17:35:05.090Z,2.90
2018-06-13T17:37:33.007Z,3.00
2018-06-13T17:40:00.551Z,2.87
2018-06-13T17:42:28.158Z,3.10
2018-06-13T17:44:55.891Z,2.60
2018-06-13T17:47:23.498Z,3.23
2018-06-13T17:49:51.333Z,2.90
2018-06-13T17:52:18.891Z,2.50
2018-06-13T17:54:46.440Z,3.20
2018-06-13T17:57:14.315Z,2.70
2018-06-13T17:59:41.843Z,2.50
2018-06-13T18:02:09.503Z,3.07
2018-06-13T18:04:37.335Z,3.00
2018-06-13T18:07:04.954Z,3.10
2018-06-13T18:09:32.817Z,3.20
2018-06-13T18:12:00.599Z,3.37
2018-06-13T18:14:28.429Z,3.33
2018-06-13T18:16:56.233Z,2.53
2018-06-13T18:19:23.916Z,3.17
2018-06-13T18:21:51.786Z,2.77
2018-06-13T18:24:19.482Z,2.80
2018-06-13T18:26:47.161Z,2.70
2018-06-13T18:29:14.879Z,2.40
2018-06-13T18:31:43.404Z,3.17
2018-06-13T18:34:11.201Z,2.90
2018-06-13T18:36:38.753Z,2.40
2018-06-13T18:39:08.418Z,2.67
2018-06-13T18:41:36.281Z,2.93
2018-06-13T18:44:04.018Z,2.20
2018-06-13T18:46:31.504Z,5.83
2018-06-13T18:48:59.269Z,3.10
2018-06-13T18:51:26.868Z,2.57
2018-06-13T18:53:54.433Z,3.60
2018-06-13T18:56:28.584Z,70.47
2018-06-13T18:58:56.266Z,21.07
2018-06-13T19:01:24.434Z,4.57
2018-06-13T19:03:52.072Z,15.73
2018-06-13T19:06:19.637Z,29.47
2018-06-13T19:08:47.234Z,52.43
2018-06-13T19:11:14.896Z,42.37
2018-06-13T19:13:42.408Z,24.40
2018-06-13T19:16:10.057Z,57.80
2018-06-13T19:18:37.633Z,17.93
2018-06-13T19:21:05.520Z,28.00
2018-06-13T19:23:33.082Z,17.90
2018-06-13T19:26:00.677Z,7.47
2018-06-13T19:28:28.303Z,7.17
2018-06-13T19:30:56.134Z,4.07
2018-06-13T19:33:23.775Z,3.30
2018-06-13T19:35:51.350Z,3.27
2018-06-13T19:38:19.000Z,3.27
2018-06-13T19:40:46.538Z,4.40
2018-06-13T19:43:19.773Z,3.80
2018-06-13T19:45:47.333Z,3.00
2018-06-13T19:48:20.691Z,3.50
2018-06-13T19:50:48.329Z,4.00
2018-06-13T19:53:21.608Z,4.03
2018-06-13T19:55:54.722Z,3.57
2018-06-13T19:58:22.517Z,4.10
2018-06-13T20:00:50.042Z,4.30
2018-06-13T20:03:23.259Z,4.90
2018-06-13T20:05:50.877Z,4.17
2018-06-13T20:08:18.389Z,4.67
2018-06-13T20:10:45.897Z,4.60
2018-06-13T20:13:18.998Z,4.40
2018-06-13T20:15:52.586Z,4.27
2018-06-13T20:18:25.777Z,4.50
2018-06-13T20:20:54.974Z,5.03
2018-06-13T20:23:22.529Z,4.23
2018-06-13T20:25:55.753Z,4.77
2018-06-13T20:28:28.855Z,4.50
2018-06-13T20:31:02.007Z,4.63
2018-06-13T20:33:29.571Z,4.50
2018-06-13T20:35:57.069Z,4.60
2018-06-13T20:38:24.580Z,4.70
2018-06-13T20:40:52.081Z,5.40
2018-06-13T20:43:19.673Z,5.37
2018-06-13T20:45:47.177Z,4.70
2018-06-13T20:48:14.712Z,4.90
2018-06-13T20:50:42.267Z,5.00
2018-06-13T20:53:09.783Z,5.30
2018-06-13T20:55:37.390Z,5.30
2018-06-13T20:58:04.996Z,5.40
2018-06-13T21:00:32.528Z,4.50
2018-06-13T21:03:00.167Z,5.17
2018-06-13T21:05:27.773Z,5.53
2018-06-13T21:07:55.701Z,5.27
2018-06-13T21:10:23.247Z,4.80
2018-06-13T21:12:50.757Z,5.10
2018-06-13T21:15:18.286Z,4.90
2018-06-13T21:17:45.825Z,6.17
2018-06-13T21:20:13.444Z,5.60
2018-06-13T21:22:40.969Z,5.90
2018-06-13T21:25:08.531Z,5.20
2018-06-13T21:27:36.073Z,5.53
2018-06-13T21:30:04.157Z,6.20
2018-06-13T21:32:31.691Z,6.30
2018-06-13T21:34:59.292Z,6.70
2018-06-13T21:37:26.798Z,7.07
2018-06-13T21:39:54.353Z,6.40
2018-06-13T21:42:21.945Z,6.63
2018-06-13T21:44:49.597Z,7.00
2018-06-13T21:47:17.428Z,6.17
2018-06-13T21:49:44.993Z,7.30
2018-06-13T21:52:12.574Z,7.13
2018-06-13T21:54:40.096Z,7.37
2018-06-13T21:57:07.633Z,7.40
2018-06-13T21:59:35.073Z,7.13
2018-06-13T22:02:02.712Z,7.50
2018-06-13T22:04:30.227Z,6.73
2018-06-13T22:06:57.802Z,5.80
2018-06-13T22:09:25.319Z,7.60
2018-06-13T22:11:53.997Z,7.90
2018-06-13T22:14:23.257Z,8.10
2018-06-13T22:16:51.509Z,7.60
2018-06-13T22:19:19.457Z,7.33
2018-06-13T22:21:47.153Z,6.70
2018-06-13T22:24:14.683Z,7.33
2018-06-13T22:26:42.298Z,6.80
2018-06-13T22:29:09.809Z,6.20
2018-06-13T22:31:37.448Z,7.40
2018-06-13T22:34:04.942Z,7.50
2018-06-13T22:36:32.452Z,7.03
2018-06-13T22:38:59.989Z,7.57
2018-06-13T22:41:27.496Z,7.00
2018-06-13T22:43:55.038Z,7.30
2018-06-13T22:46:22.599Z,6.63
2018-06-13T22:48:50.225Z,7.33
2018-06-13T22:51:17.783Z,7.57
2018-06-13T22:53:45.344Z,7.60
2018-06-13T22:56:12.870Z,7.60
2018-06-13T22:58:40.404Z,6.87
2018-06-13T23:01:09.159Z,6.30
2018-06-13T23:03:36.706Z,7.87
2018-06-13T23:06:06.370Z,7.10
2018-06-13T23:08:34.709Z,7.50
2018-06-13T23:11:02.254Z,6.93
2018-06-13T23:13:29.952Z,8.57
2018-06-13T23:15:57.474Z,6.70
2018-06-13T23:18:26.032Z,7.77
2018-06-13T23:20:53.517Z,8.10
2018-06-13T23:23:21.662Z,7.40
2018-06-13T23:25:49.521Z,7.70
2018-06-13T23:28:17.073Z,8.20
2018-06-13T23:30:44.574Z,8.17
2018-06-13T23:33:12.130Z,8.43
2018-06-13T23:35:39.629Z,6.57
2018-06-13T23:38:07.133Z,6.40
2018-06-13T23:40:35.105Z,7.10
2018-06-13T23:43:02.809Z,7.83
2018-06-13T23:45:30.506Z,8.30
2018-06-13T23:47:57.996Z,6.87
2018-06-13T23:50:25.533Z,8.97
2018-06-13T23:52:53.041Z,7.70
2018-06-13T23:55:20.640Z,9.17
2018-06-13T23:57:48.148Z,8.67
